createdAt,value
2023-01-09T00:00:52.203Z,9.53
2023-01-09T00:03:53.928Z,9.67
2023-01-09T00:06:56.148Z,12.63
2023-01-09T00:09:57.806Z,9.47
2023-01-09T00:12:59.389Z,8.23
2023-01-09T00:16:01.163Z,10.47
2023-01-09T00:19:02.821Z,10.70
2023-01-09T00:22:06.421Z,9.70
2023-01-09T00:25:08.313Z,11.30
2023-01-09T00:28:09.920Z,12.30
2023-01-09T00:31:12.057Z,13.03
2023-01-09T00:34:13.705Z,12.23
2023-01-09T00:37:15.312Z,10.90
2023-01-09T00:40:17.689Z,13.80
2023-01-09T00:43:20.530Z,12.90
2023-01-09T00:46:23.142Z,11.97
2023-01-09T00:49:25.200Z,13.73
2023-01-09T00:52:26.894Z,13.50
2023-01-09T00:55:28.952Z,13.20
2023-01-09T00:58:31.923Z,12.80
2023-01-09T01:01:33.656Z,12.70
2023-01-09T01:04:53.960Z,13.53
2023-01-09T01:07:55.542Z,15.40
2023-01-09T01:10:57.110Z,15.50
2023-01-09T01:13:59.221Z,13.47
2023-01-09T01:17:00.956Z,13.43
2023-01-09T01:20:02.934Z,12.97
2023-01-09T01:23:04.506Z,12.07
2023-01-09T01:26:06.902Z,11.73
2023-01-09T01:29:08.447Z,11.90
2023-01-09T01:32:10.202Z,12.93
2023-01-09T01:35:12.369Z,12.87
2023-01-09T01:38:13.978Z,12.37
2023-01-09T01:41:29.527Z,12.80
2023-01-09T01:44:50.043Z,12.60
2023-01-09T01:47:51.643Z,12.17
2023-01-09T01:50:53.198Z,12.47
2023-01-09T01:53:57.694Z,13.20
2023-01-09T01:57:02.487Z,13.87
2023-01-09T02:00:04.934Z,12.10
2023-01-09T02:03:07.235Z,12.63
2023-01-09T02:06:09.736Z,16.53
2023-01-09T02:09:13.397Z,9.77
2023-01-09T02:12:19.965Z,12.80
2023-01-09T02:15:21.891Z,14.93
2023-01-09T02:18:42.402Z,12.57
2023-01-09T02:22:07.561Z,13.60
2023-01-09T02:25:25.591Z,12.57
2023-01-09T02:28:33.231Z,12.67
2023-01-09T02:31:38.728Z,12.73
2023-01-09T02:34:53.170Z,13.17
2023-01-09T02:38:13.647Z,13.27
2023-01-09T02:41:21.989Z,12.70
2023-01-09T02:44:24.832Z,13.00
2023-01-09T02:47:29.471Z,12.03
2023-01-09T02:50:35.702Z,13.27
2023-01-09T02:53:55.692Z,12.33
2023-01-09T02:57:00.136Z,14.10
2023-01-09T03:00:07.978Z,15.93
2023-01-09T03:03:29.801Z,14.17
2023-01-09T03:06:55.952Z,12.53
2023-01-09T03:10:03.198Z,10.97
2023-01-09T03:13:05.564Z,12.30
2023-01-09T03:16:08.093Z,15.47
2023-01-09T03:19:11.521Z,13.10
2023-01-09T03:22:13.219Z,14.13
2023-01-09T03:25:18.276Z,13.63
2023-01-09T03:28:26.224Z,13.70
2023-01-09T03:31:28.065Z,11.30
2023-01-09T03:34:29.714Z,12.93
2023-01-09T03:37:31.368Z,14.03
2023-01-09T03:40:32.964Z,11.40
2023-01-09T03:43:34.998Z,12.20
2023-01-09T03:46:36.584Z,11.87
2023-01-09T03:49:38.154Z,9.97
2023-01-09T03:52:39.952Z,15.17
2023-01-09T03:55:48.480Z,23.10
2023-01-09T03:58:50.316Z,47.87
2023-01-09T04:01:52.011Z,16.27
2023-01-09T04:04:53.760Z,11.80
2023-01-09T04:07:55.432Z,13.07
2023-01-09T04:10:57.042Z,9.60
2023-01-09T04:13:58.705Z,12.10
2023-01-09T04:17:00.322Z,11.73
2023-01-09T04:20:02.002Z,9.93
2023-01-09T04:23:03.691Z,11.70
2023-01-09T04:26:05.516Z,12.03
2023-01-09T04:29:07.161Z,14.13
2023-01-09T04:32:08.796Z,11.13
2023-01-09T04:35:10.816Z,16.37
2023-01-09T04:38:12.488Z,13.90
2023-01-09T04:41:36.932Z,11.80
2023-01-09T04:44:38.645Z,16.07
2023-01-09T04:47:40.208Z,19.63
2023-01-09T04:50:41.912Z,17.77
2023-01-09T04:53:43.602Z,24.17
2023-01-09T04:56:45.343Z,16.67
2023-01-09T04:59:46.944Z,20.33
2023-01-09T05:02:48.518Z,15.10
2023-01-09T05:05:50.102Z,18.37
2023-01-09T05:08:51.722Z,19.93
2023-01-09T05:11:53.312Z,25.87
2023-01-09T05:14:54.933Z,23.53
2023-01-09T05:17:56.555Z,31.90
2023-01-09T05:20:58.498Z,32.87
2023-01-09T05:24:07.376Z,36.90
2023-01-09T05:27:11.207Z,29.10
2023-01-09T05:30:14.712Z,38.60
2023-01-09T05:33:17.639Z,50.93
2023-01-09T05:36:19.274Z,41.90
2023-01-09T05:39:22.020Z,43.53
2023-01-09T05:42:23.612Z,30.57
2023-01-09T05:45:27.160Z,68.70
2023-01-09T05:48:28.914Z,52.27
2023-01-09T05:51:31.963Z,46.57
2023-01-09T05:54:33.530Z,34.87
2023-01-09T05:57:35.156Z,40.67
2023-01-09T06:00:36.876Z,37.67
2023-01-09T06:03:38.462Z,34.70
2023-01-09T06:06:41.083Z,207.00
2023-01-09T06:09:42.723Z,80.30
2023-01-09T06:12:47.447Z,52.40
2023-01-09T06:15:49.335Z,51.50
2023-01-09T06:18:51.159Z,59.57
2023-01-09T06:21:53.790Z,70.30
2023-01-09T06:24:55.520Z,79.47
2023-01-09T06:27:57.185Z,85.77
2023-01-09T06:30:58.867Z,58.97
2023-01-09T06:34:00.543Z,61.87
2023-01-09T06:37:02.167Z,21.23
2023-01-09T06:40:04.024Z,19.07
2023-01-09T06:43:05.593Z,16.90
2023-01-09T06:46:07.364Z,14.70
2023-01-09T06:49:09.988Z,14.70
2023-01-09T06:52:11.809Z,14.27
2023-01-09T06:55:13.555Z,13.13
2023-01-09T06:58:15.207Z,14.67
2023-01-09T07:01:16.808Z,14.40
2023-01-09T07:04:18.599Z,14.17
2023-01-09T07:07:22.325Z,13.27
2023-01-09T07:10:23.982Z,11.00
2023-01-09T07:13:25.584Z,12.13
2023-01-09T07:16:27.229Z,16.13
2023-01-09T07:19:28.843Z,16.90
2023-01-09T07:22:30.466Z,13.13
2023-01-09T07:25:32.119Z,14.07
2023-01-09T07:28:33.749Z,13.77
2023-01-09T07:31:35.435Z,13.37
2023-01-09T07:34:37.083Z,16.87
2023-01-09T07:37:38.765Z,29.53
2023-01-09T07:40:40.489Z,21.90
2023-01-09T07:43:42.104Z,32.07
2023-01-09T07:46:43.806Z,15.83
2023-01-09T07:49:45.466Z,14.50
2023-01-09T07:52:47.436Z,16.67
2023-01-09T07:55:49.032Z,14.87
2023-01-09T07:58:50.729Z,19.13
2023-01-09T08:01:52.462Z,16.00
2023-01-09T08:04:54.108Z,14.60
2023-01-09T08:07:55.803Z,15.50
2023-01-09T08:10:57.420Z,18.70
2023-01-09T08:13:59.178Z,15.47
2023-01-09T08:17:00.857Z,14.67
2023-01-09T08:20:03.077Z,11.47
2023-01-09T08:23:04.716Z,11.77
2023-01-09T08:26:06.398Z,11.77
2023-01-09T08:29:08.011Z,11.80
2023-01-09T08:32:09.693Z,13.60
2023-01-09T08:35:11.469Z,17.37
2023-01-09T08:38:13.134Z,11.60
2023-01-09T08:41:33.467Z,12.87
2023-01-09T08:44:53.883Z,16.40
2023-01-09T08:47:55.776Z,11.93
2023-01-09T08:50:57.424Z,11.57
2023-01-09T08:53:59.077Z,12.77
2023-01-09T08:57:00.724Z,13.87
2023-01-09T09:00:02.488Z,14.30
2023-01-09T09:03:04.303Z,14.40
2023-01-09T09:06:09.749Z,13.23
2023-01-09T09:09:11.591Z,17.73
2023-01-09T09:12:13.267Z,12.80
2023-01-09T09:15:23.809Z,12.83
2023-01-09T09:18:25.456Z,11.73
2023-01-09T09:21:27.068Z,12.40
2023-01-09T09:24:28.662Z,12.00
2023-01-09T09:27:31.047Z,14.83
2023-01-09T09:30:33.051Z,13.30
2023-01-09T09:33:34.703Z,13.00
2023-01-09T09:36:36.386Z,14.57
2023-01-09T09:39:38.035Z,12.47
2023-01-09T09:43:24.874Z,11.70
2023-01-09T09:46:37.425Z,9.90
2023-01-09T09:49:50.505Z,15.37
2023-01-09T09:52:57.627Z,15.73
2023-01-09T09:55:59.387Z,14.77
2023-01-09T09:59:11.314Z,12.23
2023-01-09T10:02:12.923Z,15.43
2023-01-09T10:05:17.219Z,16.10
2023-01-09T10:08:34.942Z,15.90
2023-01-09T10:11:42.452Z,15.57
2023-01-09T10:14:44.147Z,19.23
2023-01-09T10:17:54.496Z,19.07
2023-01-09T10:21:02.078Z,14.83
2023-01-09T10:24:09.920Z,19.43
2023-01-09T10:27:22.404Z,20.70
2023-01-09T10:30:37.575Z,14.83
2023-01-09T10:33:59.476Z,17.60
2023-01-09T10:37:05.479Z,19.70
2023-01-09T10:40:13.047Z,17.80
2023-01-09T10:43:29.525Z,18.07
2023-01-09T10:46:37.269Z,18.37
2023-01-09T10:49:39.723Z,18.83
2023-01-09T10:52:42.001Z,17.43
2023-01-09T10:55:47.843Z,19.53
2023-01-09T10:58:50.645Z,20.17
2023-01-09T11:01:53.617Z,18.30
2023-01-09T11:04:55.261Z,20.93
2023-01-09T11:08:09.110Z,20.37
2023-01-09T11:11:10.936Z,18.67
2023-01-09T11:14:31.640Z,19.37
2023-01-09T11:17:33.341Z,20.73
2023-01-09T11:20:34.996Z,23.83
2023-01-09T11:23:36.650Z,21.20
2023-01-09T11:26:38.315Z,19.85
2023-01-09T11:29:42.917Z,22.43
2023-01-09T11:32:45.116Z,18.83
2023-01-09T11:36:08.166Z,17.43
2023-01-09T11:39:19.463Z,18.70
2023-01-09T11:42:45.102Z,18.23
2023-01-09T11:46:00.513Z,18.43
2023-01-09T11:49:03.827Z,19.70
2023-01-09T11:52:26.617Z,19.77
2023-01-09T11:55:34.802Z,19.50
2023-01-09T11:58:43.659Z,18.07
2023-01-09T12:02:03.850Z,17.53
2023-01-09T12:05:19.301Z,15.57
2023-01-09T12:08:33.593Z,15.43
2023-01-09T12:11:44.705Z,20.80
2023-01-09T12:14:46.222Z,18.63
2023-01-09T12:17:47.798Z,18.07
2023-01-09T12:20:52.569Z,17.87
2023-01-09T12:23:57.240Z,12.23
2023-01-09T12:27:17.650Z,19.03
2023-01-09T12:30:22.440Z,19.30
2023-01-09T12:33:32.488Z,21.37
2023-01-09T12:36:43.616Z,17.80
2023-01-09T12:39:53.065Z,17.83
2023-01-09T12:43:00.138Z,17.07
2023-01-09T12:46:17.129Z,19.33
2023-01-09T12:49:26.677Z,17.60
2023-01-09T12:52:34.909Z,19.87
2023-01-09T12:55:42.510Z,19.33
2023-01-09T12:58:58.813Z,20.17
2023-01-09T13:02:05.634Z,17.23
2023-01-09T13:05:22.130Z,20.07
2023-01-09T13:08:31.940Z,20.63
2023-01-09T13:11:47.434Z,19.57
2023-01-09T13:14:54.859Z,22.70
2023-01-09T13:18:08.122Z,22.73
2023-01-09T13:21:11.947Z,21.77
2023-01-09T13:24:22.734Z,22.10
2023-01-09T13:27:26.521Z,18.70
2023-01-09T13:30:46.651Z,22.00
2023-01-09T13:33:53.355Z,22.23
2023-01-09T13:36:56.083Z,21.17
2023-01-09T13:40:06.159Z,19.00
2023-01-09T13:43:10.950Z,18.73
2023-01-09T13:46:12.639Z,21.37
2023-01-09T13:49:33.305Z,22.97
2023-01-09T13:52:38.091Z,21.30
2023-01-09T13:55:59.893Z,26.77
2023-01-09T13:59:02.975Z,24.27
2023-01-09T14:02:24.706Z,22.97
2023-01-09T14:05:26.303Z,25.83
2023-01-09T14:08:29.126Z,20.97
2023-01-09T14:11:30.988Z,19.73
2023-01-09T14:14:33.929Z,18.97
2023-01-09T14:17:36.740Z,20.17
2023-01-09T14:24:20.292Z,25.57
2023-01-09T14:27:40.795Z,22.20
2023-01-09T14:31:02.725Z,23.93
2023-01-09T14:34:30.581Z,25.93
2023-01-09T14:37:34.019Z,16.63
2023-01-09T14:40:37.211Z,18.60
2023-01-09T14:43:39.455Z,20.23
2023-01-09T14:46:42.450Z,21.53
2023-01-09T14:49:45.902Z,21.90
2023-01-09T14:52:47.582Z,25.77
2023-01-09T14:55:59.650Z,21.57
2023-01-09T14:59:05.337Z,21.03
2023-01-09T15:02:10.010Z,18.20
2023-01-09T15:05:13.677Z,24.90
2023-01-09T15:08:18.567Z,26.43
2023-01-09T15:11:20.218Z,27.97
2023-01-09T15:14:33.607Z,32.03
2023-01-09T15:17:36.375Z,36.50
2023-01-09T15:20:38.034Z,34.80
2023-01-09T15:23:39.688Z,29.50
2023-01-09T15:26:41.653Z,31.00
2023-01-09T15:29:43.223Z,31.33
2023-01-09T15:32:46.329Z,36.03
2023-01-09T15:35:49.923Z,28.63
2023-01-09T15:38:52.523Z,22.67
2023-01-09T15:42:13.231Z,31.77
2023-01-09T15:45:32.477Z,34.77
2023-01-09T15:48:35.036Z,36.47
2023-01-09T15:51:36.851Z,59.80
2023-01-09T15:54:39.992Z,56.20
2023-01-09T15:57:51.897Z,29.63
2023-01-09T16:00:55.037Z,34.87
2023-01-09T16:04:12.517Z,36.90
2023-01-09T16:07:15.796Z,28.33
2023-01-09T16:10:35.844Z,35.57
2023-01-09T16:13:44.993Z,35.00
2023-01-09T16:16:47.217Z,32.63
2023-01-09T16:19:59.276Z,37.20
2023-01-09T16:23:02.786Z,37.00
2023-01-09T16:26:07.636Z,34.43
2023-01-09T16:29:29.568Z,37.10
2023-01-09T16:32:32.712Z,32.63
2023-01-09T16:35:34.321Z,37.10
2023-01-09T16:38:35.920Z,38.93
2023-01-09T16:41:56.192Z,44.10
2023-01-09T16:44:57.762Z,35.43
2023-01-09T16:47:59.804Z,34.07
2023-01-09T16:51:01.730Z,31.60
2023-01-09T16:54:03.397Z,31.50
2023-01-09T16:57:05.200Z,33.03
2023-01-09T17:00:07.407Z,43.57
2023-01-09T17:03:15.233Z,28.60
2023-01-09T17:06:19.907Z,32.97
2023-01-09T17:09:27.369Z,29.27
2023-01-09T17:12:30.033Z,30.80
2023-01-09T17:15:32.519Z,39.53
2023-01-09T17:18:34.274Z,42.40
2023-01-09T17:21:35.991Z,40.83
2023-01-09T17:24:56.527Z,39.27
2023-01-09T17:28:16.796Z,39.30
2023-01-09T17:31:19.106Z,33.53
2023-01-09T17:34:20.898Z,37.67
2023-01-09T17:37:22.669Z,36.60
2023-01-09T17:40:26.063Z,39.23
2023-01-09T17:43:27.675Z,31.83
2023-01-09T17:46:31.067Z,30.03
2023-01-09T17:49:32.958Z,24.63
2023-01-09T17:52:34.566Z,25.77
2023-01-09T17:55:36.372Z,27.03
2023-01-09T17:58:38.012Z,28.93
2023-01-09T18:01:39.855Z,26.33
2023-01-09T18:04:41.458Z,21.50
2023-01-09T18:07:43.136Z,21.33
2023-01-09T18:10:49.510Z,25.93
2023-01-09T18:13:53.706Z,22.40
2023-01-09T18:16:55.459Z,24.97
2023-01-09T18:19:57.143Z,21.13
2023-01-09T18:22:58.796Z,22.83
2023-01-09T18:26:00.433Z,19.73
2023-01-09T18:29:02.209Z,22.53
2023-01-09T18:32:04.067Z,28.43
2023-01-09T18:35:05.761Z,22.07
2023-01-09T18:38:07.982Z,25.87
2023-01-09T18:41:09.572Z,24.00
2023-01-09T18:44:11.263Z,26.60
2023-01-09T18:47:14.034Z,27.23
2023-01-09T18:50:15.860Z,24.87
2023-01-09T18:53:17.463Z,33.57
2023-01-09T18:56:20.051Z,22.00
2023-01-09T18:59:21.774Z,28.63
2023-01-09T19:02:24.947Z,19.57
2023-01-09T19:05:26.633Z,24.47
2023-01-09T19:08:29.211Z,21.93
2023-01-09T19:11:30.859Z,24.13
2023-01-09T19:14:32.508Z,21.90
2023-01-09T19:17:34.216Z,22.93
2023-01-09T19:20:38.126Z,22.60
2023-01-09T19:23:40.307Z,17.60
2023-01-09T19:26:42.578Z,26.63
2023-01-09T19:29:44.163Z,23.33
2023-01-09T19:32:45.862Z,18.50
2023-01-09T19:35:51.859Z,24.67
2023-01-09T19:38:57.320Z,26.40
2023-01-09T19:41:59.020Z,23.07
2023-01-09T19:45:00.834Z,22.03
2023-01-09T19:48:02.484Z,24.73
2023-01-09T19:51:04.941Z,19.40
2023-01-09T19:57:07.244Z,24.67
2023-01-09T20:00:10.186Z,27.37
2023-01-09T20:03:14.314Z,19.20
2023-01-09T20:06:22.400Z,17.27
2023-01-09T20:09:27.436Z,18.43
2023-01-09T20:12:29.135Z,20.53
2023-01-09T20:15:30.848Z,18.33
2023-01-09T20:18:33.266Z,19.60
2023-01-09T20:21:35.524Z,19.80
2023-01-09T20:24:38.985Z,19.33
2023-01-09T20:27:40.620Z,18.97
2023-01-09T20:30:43.105Z,18.77
2023-01-09T20:33:45.978Z,20.10
2023-01-09T20:36:47.769Z,18.87
2023-01-09T20:40:07.608Z,22.03
2023-01-09T20:43:10.513Z,22.60
2023-01-09T20:46:12.226Z,20.53
2023-01-09T20:49:16.066Z,19.77
2023-01-09T20:52:17.810Z,17.27
2023-01-09T20:55:19.475Z,18.13
2023-01-09T20:58:21.069Z,20.33
2023-01-09T21:01:23.137Z,18.63
2023-01-09T21:04:24.861Z,18.53
2023-01-09T21:07:27.652Z,14.37
2023-01-09T21:10:29.534Z,18.43
2023-01-09T21:13:31.270Z,20.00
2023-01-09T21:16:33.018Z,23.83
2023-01-09T21:19:34.640Z,15.17
2023-01-09T21:22:36.650Z,22.10
2023-01-09T21:25:38.856Z,17.13
2023-01-09T21:28:51.403Z,19.17
2023-01-09T21:31:54.901Z,18.53
2023-01-09T21:35:03.209Z,14.87
2023-01-09T21:38:04.804Z,16.40
2023-01-09T21:41:32.711Z,15.90
2023-01-09T21:44:52.998Z,17.43
2023-01-09T21:47:54.557Z,16.50
2023-01-09T21:50:56.207Z,22.17
2023-01-09T21:53:57.783Z,18.47
2023-01-09T21:56:59.824Z,16.77
2023-01-09T22:00:01.515Z,14.43
2023-01-09T22:03:16.892Z,13.73
2023-01-09T22:06:18.527Z,14.23
2023-01-09T22:09:20.374Z,13.60
2023-01-09T22:12:22.055Z,10.00
2023-01-09T22:15:23.760Z,11.67
2023-01-09T22:18:25.468Z,10.03
2023-01-09T22:21:27.153Z,8.60
2023-01-09T22:24:28.685Z,12.63
2023-01-09T22:27:30.231Z,11.40
2023-01-09T22:30:32.260Z,8.90
2023-01-09T22:33:33.818Z,9.43
2023-01-09T22:36:35.493Z,8.77
2023-01-09T22:39:37.227Z,11.00
2023-01-09T22:42:38.935Z,10.03
2023-01-09T22:45:40.958Z,8.67
2023-01-09T22:48:42.589Z,10.50
2023-01-09T22:51:44.293Z,10.33
2023-01-09T22:54:45.911Z,8.30
2023-01-09T22:57:47.508Z,9.17
2023-01-09T23:00:49.138Z,9.33
2023-01-09T23:03:50.774Z,10.30
2023-01-09T23:06:52.346Z,11.53
2023-01-09T23:09:56.322Z,9.77
2023-01-09T23:12:58.027Z,10.80
2023-01-09T23:16:00.008Z,13.47
2023-01-09T23:19:01.781Z,13.27
2023-01-09T23:22:03.936Z,13.00
2023-01-09T23:25:05.976Z,15.37
2023-01-09T23:28:07.643Z,16.77
2023-01-09T23:31:09.300Z,13.70
2023-01-09T23:34:13.919Z,17.00
2023-01-09T23:37:15.819Z,15.37
2023-01-09T23:40:17.421Z,14.30
2023-01-09T23:43:19.039Z,9.73
2023-01-09T23:46:20.689Z,13.87
2023-01-09T23:49:22.399Z,17.97
2023-01-09T23:52:23.984Z,13.77
2023-01-09T23:55:25.774Z,14.90
2023-01-09T23:58:27.491Z,14.83
